Time;durP1;ratioP1;P1;durP2;ratioP2;P2;SDS_P1;SDS_P2;PMS_P1;PMS_P2;Temp;Humidity;BMP_temperature;BMP_pressure;BME280_temperature;BME280_humidity;BME280_pressure;Samples;Min_cycle;Max_cycle;Signal;HPM_P1;HPM_P2
2022/12/29 00:00:00;;;;;;;6.45;5.18;;;;;;;;;;5069727;28;20514;-75
2022/12/29 00:02:26;;;;;;;6.70;5.38;;;;;;;;;;5065238;28;20433;-76
2022/12/29 00:04:52;;;;;;;7.13;5.32;;;;;;;;;;5053787;28;20929;-76
2022/12/29 00:07:18;;;;;;;6.90;5.63;;;;;;;;;;5068542;28;20439;-76
2022/12/29 00:09:44;;;;;;;7.18;5.80;;;;;;;;;;5053577;28;20431;-76
2022/12/29 00:12:10;;;;;;;6.68;5.55;;;;;;;;;;5068303;28;20416;-76
2022/12/29 00:17:21;;;;;;;6.75;5.88;;;;;;;;;;5070466;28;20407;-75
2022/12/29 00:36:17;;;;;;;7.03;6.22;;;;;;;;;;5099281;28;20478;-76
2022/12/29 00:44:19;;;;;;;7.20;5.82;;;;;;;;;;5062109;28;20472;-75
2022/12/29 00:46:45;;;;;;;8.05;6.15;;;;;;;;;;5070251;28;20399;-76
2022/12/29 00:49:30;;;;;;;6.90;6.10;;;;;;;;;;5065455;28;20521;-76
2022/12/29 00:52:05;;;;;;;6.97;5.68;;;10.60;99.90;;;;;;5070155;28;20441;-76
2022/12/29 00:54:33;;;;;;;7.43;5.88;;;10.80;99.90;;;;;;5063608;28;20454;-76
2022/12/29 00:59:24;;;;;;;7.28;5.70;;;;;;;;;;5103822;27;20704;-75
2022/12/29 01:01:50;;;;;;;7.20;5.35;;;;;;;;;;5083517;28;20517;-75
2022/12/29 01:04:17;;;;;;;6.57;5.25;;;;;;;;;;5085181;28;20447;-75
2022/12/29 01:06:43;;;;;;;6.55;5.43;;;;;;;;;;5085914;28;20418;-75
2022/12/29 01:11:54;;;;;;;7.00;5.28;;;;;;;;;;5121212;28;20422;-75
2022/12/29 01:14:20;;;;;;;6.73;4.90;;;10.90;99.90;;;;;;5084628;28;20418;-75
2022/12/29 01:16:47;;;;;;;6.70;4.72;;;;;;;;;;5102315;28;20419;-75
2022/12/29 01:19:13;;;;;;;5.83;4.50;;;;;;;;;;5086977;28;20438;-75
2022/12/29 01:21:39;;;;;;;6.32;4.90;;;;;;;;;;5086726;28;20973;-75
2022/12/29 01:24:05;;;;;;;5.68;4.93;;;;;;;;;;5082228;28;20410;-75
2022/12/29 01:26:32;;;;;;;7.03;5.00;;;;;;;;;;5069437;28;20419;-75
2022/12/29 01:28:58;;;;;;;8.20;4.87;;;;;;;;;;5083777;28;20501;-75
2022/12/29 01:31:24;;;;;;;5.88;4.97;;;;;;;;;;5056836;28;20422;-75
2022/12/29 01:33:50;;;;;;;6.63;5.25;;;;;;;;;;5084404;28;20426;-75
2022/12/29 01:36:17;;;;;;;6.70;5.22;;;;;;;;;;5080407;28;20944;-75
2022/12/29 01:38:43;;;;;;;7.65;5.50;;;;;;;;;;5061268;28;20853;-76
2022/12/29 01:41:11;;;;;;;7.10;5.20;;;;;;;;;;5085184;28;20414;-75
2022/12/29 01:43:48;;;;;;;6.35;5.22;;;11.00;99.90;;;;;;5068266;28;20425;-75
2022/12/29 01:46:14;;;;;;;8.27;5.43;;;;;;;;;;5084957;28;20790;-75
2022/12/29 01:48:40;;;;;;;6.70;4.78;;;;;;;;;;5068979;28;20427;-75
2022/12/29 01:51:07;;;;;;;6.17;4.90;;;;;;;;;;5069459;28;20432;-75
2022/12/29 01:53:35;;;;;;;6.28;4.53;;;10.60;99.90;;;;;;5065962;28;20459;-75
2022/12/29 01:56:05;;;;;;;5.47;4.28;;;;;;;;;;5084215;28;20506;-75
2022/12/29 01:58:34;;;;;;;5.90;4.07;;;;;;;;;;5097843;28;20975;-75
2022/12/29 02:01:00;;;;;;;5.97;3.80;;;;;;;;;;5103047;28;20413;-75
2022/12/29 02:03:28;;;;;;;4.97;3.87;;;;;;;;;;5076465;28;20413;-75
2022/12/29 02:06:00;;;;;;;6.10;3.80;;;10.70;99.90;;;;;;5106481;28;20417;-75
2022/12/29 02:08:28;;;;;;;5.32;3.83;;;;;;;;;;5103378;28;20417;-75
2022/12/29 02:10:54;;;;;;;5.88;3.90;;;;;;;;;;5092175;28;20421;-75
2022/12/29 02:13:20;;;;;;;6.13;3.70;;;;;;;;;;5089833;28;20435;-75
2022/12/29 02:15:57;;;;;;;4.75;3.20;;;;;;;;;;5075060;28;20417;-74
2022/12/29 02:18:37;;;;;;;5.05;3.33;;;;;;;;;;5092763;28;20826;-75
2022/12/29 02:21:12;;;;;;;5.40;3.20;;;;;;;;;;5090682;28;20410;-75
2022/12/29 02:23:41;;;;;;;5.20;3.00;;;;;;;;;;5089897;28;20909;-74
2022/12/29 02:26:16;;;;;;;4.53;3.45;;;;;;;;;;5089681;28;20556;-75
2022/12/29 02:28:42;;;;;;;4.90;3.40;;;;;;;;;;5091114;28;20470;-75
2022/12/29 02:31:25;;;;;;;5.60;3.17;;;;;;;;;;5089784;28;20544;-75
2022/12/29 02:33:54;;;;;;;5.20;3.05;;;;;;;;;;5068893;28;20422;-74
2022/12/29 02:36:23;;;;;;;5.25;3.03;;;;;;;;;;5074714;28;20418;-75
2022/12/29 02:39:00;;;;;;;4.88;3.00;;;;;;;;;;5090146;28;20483;-74
2022/12/29 02:41:58;;;;;;;6.00;2.90;;;;;;;;;;5089538;28;20417;-75
2022/12/29 02:44:44;;;;;;;4.70;3.00;;;;;;;;;;5093301;28;20448;-75
2022/12/29 02:47:10;;;;;;;3.67;2.60;;;;;;;;;;5083642;28;20464;-75
2022/12/29 02:49:46;;;;;;;5.20;2.90;;;10.50;99.90;;;;;;5085917;28;20416;-75
2022/12/29 02:52:16;;;;;;;6.13;2.90;;;;;;;;;;5069752;28;20922;-75
2022/12/29 02:54:42;;;;;;;4.10;2.63;;;;;;;;;;5089590;28;20445;-75
2022/12/29 02:57:15;;;;;;;5.43;2.55;;;;;;;;;;5090152;28;20471;-75
2022/12/29 02:59:43;;;;;;;4.93;2.57;;;;;;;;;;5088053;28;20546;-76
2022/12/29 03:02:19;;;;;;;5.68;2.80;;;;;;;;;;5087039;28;20428;-75
2022/12/29 03:05:02;;;;;;;4.03;2.40;;;10.70;99.90;;;;;;5074689;28;20421;-75
2022/12/29 03:07:28;;;;;;;3.28;2.20;;;;;;;;;;5090395;28;20932;-75
2022/12/29 03:10:05;;;;;;;4.00;2.47;;;;;;;;;;5088262;28;20426;-75
2022/12/29 03:18:39;;;;;;;6.47;2.47;;;10.60;99.90;;;;;;5071573;28;20780;-75
2022/12/29 03:21:17;;;;;;;3.30;1.88;;;;;;;;;;5087784;28;20422;-75
2022/12/29 03:23:48;;;;;;;4.40;1.90;;;10.60;99.90;;;;;;5073318;28;20978;-75
2022/12/29 03:26:16;;;;;;;4.20;2.00;;;;;;;;;;5104937;28;20444;-75
2022/12/29 03:28:53;;;;;;;3.83;1.95;;;;;;;;;;5088929;28;20766;-75
2022/12/29 03:31:21;;;;;;;5.35;1.92;;;;;;;;;;5073272;28;20421;-75
2022/12/29 03:33:48;;;;;;;4.88;2.00;;;;;;;;;;5088047;28;21002;-75
2022/12/29 03:36:23;;;;;;;5.10;1.90;;;10.40;99.90;;;;;;5091067;28;20616;-75
2022/12/29 03:39:02;;;;;;;4.45;1.90;;;;;;;;;;5089206;28;20418;-75
2022/12/29 03:41:31;;;;;;;3.88;2.10;;;10.90;99.90;;;;;;5090724;28;20417;-75
2022/12/29 03:43:57;;;;;;;3.95;2.10;;;;;;;;;;5084866;28;20413;-75
2022/12/29 03:46:24;;;;;;;4.13;2.10;;;;;;;;;;5087471;28;20469;-75
2022/12/29 03:48:50;;;;;;;4.80;2.30;;;;;;;;;;5054000;28;20424;-75
2022/12/29 03:51:16;;;;;;;4.80;2.55;;;;;;;;;;5082360;28;20418;-75
2022/12/29 03:53:42;;;;;;;4.13;2.30;;;;;;;;;;5086888;28;20440;-75
2022/12/29 03:56:08;;;;;;;5.80;2.35;;;;;;;;;;5085567;28;20902;-75
2022/12/29 03:58:34;;;;;;;4.68;2.00;;;10.70;99.90;;;;;;5073477;28;20943;-75
2022/12/29 04:01:00;;;;;;;4.30;2.00;;;;;;;;;;5085525;28;20517;-75
2022/12/29 04:03:27;;;;;;;6.70;2.28;;;;;;;;;;5088402;28;20410;-75
2022/12/29 04:05:53;;;;;;;3.67;1.85;;;;;;;;;;5059851;28;20443;-75
2022/12/29 04:08:21;;;;;;;4.20;1.80;;;;;;;;;;5072550;28;20428;-75
2022/12/29 04:10:49;;;;;;;4.70;1.75;;;;;;;;;;5101423;28;20995;-75
2022/12/29 04:13:15;;;;;;;4.47;2.10;;;;;;;;;;5091559;28;20417;-75
2022/12/29 04:15:42;;;;;;;3.75;1.60;;;;;;;;;;5054403;28;20419;-75
2022/12/29 04:18:08;;;;;;;4.80;1.60;;;;;;;;;;5084090;28;20582;-75
2022/12/29 04:23:19;;;;;;;7.18;1.60;;;;;;;;;;5088823;28;20453;-75
2022/12/29 04:25:48;;;;;;;5.93;1.35;;;;;;;;;;5085192;28;20415;-75
2022/12/29 04:28:15;;;;;;;5.30;1.50;;;;;;;;;;5088080;28;20425;-75
2022/12/29 04:30:41;;;;;;;5.40;1.30;;;;;;;;;;5068756;28;20826;-75
2022/12/29 04:33:07;;;;;;;3.58;1.20;;;;;;;;;;5089969;28;20429;-75
2022/12/29 04:35:33;;;;;;;4.67;1.50;;;;;;;;;;5089274;28;20414;-75
2022/12/29 04:37:59;;;;;;;6.20;1.40;;;;;;;;;;5088617;28;20522;-75
2022/12/29 04:40:25;;;;;;;5.13;1.40;;;;;;;;;;5073444;28;20414;-75
2022/12/29 04:42:51;;;;;;;6.18;1.50;;;;;;;;;;5089612;28;20420;-75
2022/12/29 04:45:18;;;;;;;5.53;1.60;;;;;;;;;;5086436;28;20413;-75
2022/12/29 04:47:44;;;;;;;8.00;1.75;;;;;;;;;;5086658;28;20425;-75
2022/12/29 04:50:10;;;;;;;8.13;1.85;;;;;;;;;;5089173;28;20434;-75
2022/12/29 04:52:37;;;;;;;6.65;1.52;;;;;;;;;;5087117;28;20436;-76
2022/12/29 04:55:03;;;;;;;7.15;2.10;;;;;;;;;;5088396;28;20425;-75
2022/12/29 04:57:29;;;;;;;7.68;1.70;;;;;;;;;;5087061;28;20478;-75
2022/12/29 04:59:55;;;;;;;6.53;1.67;;;;;;;;;;5089879;28;20410;-75
2022/12/29 05:02:21;;;;;;;9.80;2.10;;;;;;;;;;5054971;28;20414;-75
2022/12/29 05:04:47;;;;;;;8.20;1.92;;;;;;;;;;5089702;28;20393;-75
2022/12/29 05:07:14;;;;;;;6.68;1.95;;;;;;;;;;5085680;28;20486;-75
2022/12/29 05:09:40;;;;;;;7.70;1.98;;;;;;;;;;5090155;28;20414;-76
2022/12/29 05:12:06;;;;;;;9.05;2.50;;;;;;;;;;5056982;28;20404;-76
2022/12/29 05:14:32;;;;;;;7.53;2.05;;;;;;;;;;5071520;28;20405;-75
2022/12/29 05:16:58;;;;;;;8.10;2.10;;;;;;;;;;5071149;28;20410;-76
2022/12/29 05:19:24;;;;;;;7.13;2.15;;;;;;;;;;5088654;28;20421;-76
2022/12/29 05:21:50;;;;;;;9.48;2.50;;;;;;;;;;5070701;28;20426;-76
2022/12/29 05:24:16;;;;;;;10.57;2.35;;;;;;;;;;5055492;28;20833;-75
2022/12/29 05:26:42;;;;;;;7.82;2.22;;;;;;;;;;5086553;28;20453;-76
2022/12/29 05:29:08;;;;;;;9.85;2.25;;;;;;;;;;5069017;28;20418;-75
2022/12/29 05:31:35;;;;;;;7.88;2.08;;;;;;;;;;5087138;28;20421;-75
2022/12/29 05:34:01;;;;;;;11.02;2.28;;;;;;;;;;5083134;28;20427;-75
2022/12/29 05:36:27;;;;;;;10.15;2.58;;;;;;;;;;5086938;28;20417;-75
2022/12/29 05:38:53;;;;;;;8.18;2.30;;;;;;;;;;5106088;28;20426;-75
2022/12/29 05:41:20;;;;;;;11.68;2.50;;;;;;;;;;5072080;28;20416;-75
2022/12/29 05:43:48;;;;;;;9.93;2.40;;;;;;;;;;5057087;28;20412;-75
2022/12/29 05:46:14;;;;;;;11.85;2.28;;;;;;;;;;5092969;28;20393;-75
2022/12/29 05:48:40;;;;;;;9.93;2.47;;;;;;;;;;5074297;28;20426;-75
2022/12/29 05:51:06;;;;;;;10.73;2.70;;;;;;;;;;5091476;28;20499;-75
2022/12/29 05:53:32;;;;;;;12.50;2.77;;;;;;;;;;5076123;28;20405;-76
2022/12/29 05:55:58;;;;;;;11.10;2.50;;;;;;;;;;5070045;28;20425;-76
2022/12/29 05:58:25;;;;;;;9.15;2.25;;;;;;;;;;5076408;28;20425;-76
2022/12/29 06:00:51;;;;;;;9.77;2.27;;;;;;;;;;5072176;28;20498;-75
2022/12/29 06:03:17;;;;;;;8.63;2.13;;;;;;;;;;5073780;28;20905;-76
2022/12/29 06:05:45;;;;;;;13.82;2.50;;;;;;;;;;5075239;28;20807;-76
2022/12/29 06:08:11;;;;;;;9.98;2.13;;;;;;;;;;5076511;28;20877;-76
2022/12/29 06:10:37;;;;;;;9.10;2.30;;;;;;;;;;5091109;28;20421;-76
2022/12/29 06:13:05;;;;;;;8.40;2.50;;;;;;;;;;5075967;28;20427;-76
2022/12/29 06:15:32;;;;;;;10.93;2.30;;;9.80;99.90;;;;;;5075185;28;20439;-75
2022/12/29 06:17:58;;;;;;;11.55;2.60;;;;;;;;;;5089133;28;20458;-76
2022/12/29 06:20:24;;;;;;;7.63;2.03;;;;;;;;;;5109448;28;20459;-76
2022/12/29 06:22:50;;;;;;;10.35;2.33;;;;;;;;;;5093276;28;20426;-76
2022/12/29 06:25:16;;;;;;;12.25;2.60;;;;;;;;;;5073512;28;20414;-76
2022/12/29 06:27:42;;;;;;;11.88;2.58;;;;;;;;;;5089165;28;20452;-76
2022/12/29 06:30:09;;;;;;;13.35;2.53;;;;;;;;;;5091061;28;20940;-76
2022/12/29 06:32:35;;;;;;;12.43;2.45;;;;;;;;;;5088664;28;20921;-75
2022/12/29 06:35:02;;;;;;;8.98;2.22;;;;;;;;;;5098496;28;20413;-76
2022/12/29 06:37:28;;;;;;;12.57;2.47;;;;;;;;;;5054790;28;20568;-76
2022/12/29 06:39:54;;;;;;;12.65;2.58;;;;;;;;;;5090081;28;20414;-76
2022/12/29 06:42:20;;;;;;;12.68;2.50;;;;;;;;;;5085639;28;20421;-76
2022/12/29 06:44:46;;;;;;;13.07;2.97;;;;;;;;;;5073917;28;20418;-76
2022/12/29 06:47:12;;;;;;;12.73;2.40;;;;;;;;;;5091087;28;20429;-76
2022/12/29 06:49:38;;;;;;;11.65;2.83;;;;;;;;;;5100263;28;20413;-76
2022/12/29 06:52:04;;;;;;;14.80;2.63;;;;;;;;;;5074596;28;20443;-76
2022/12/29 06:54:34;;;;;;;13.07;3.05;;;;;;;;;;5089335;28;20414;-76
2022/12/29 06:57:00;;;;;;;12.67;2.50;;;;;;;;;;5086544;28;20413;-76
2022/12/29 06:59:26;;;;;;;12.48;2.90;;;;;;;;;;5074351;28;20437;-76
2022/12/29 07:01:52;;;;;;;14.25;2.80;;;;;;;;;;5090922;28;20820;-76
2022/12/29 07:04:18;;;;;;;13.43;2.65;;;;;;;;;;5074033;28;20929;-76
2022/12/29 07:06:44;;;;;;;11.57;2.65;;;;;;;;;;5070618;28;20465;-76
2022/12/29 07:09:10;;;;;;;13.25;3.20;;;;;;;;;;5092395;28;20493;-76
2022/12/29 07:11:37;;;;;;;11.60;2.58;;;;;;;;;;5093915;28;20893;-76
2022/12/29 07:14:03;;;;;;;14.40;2.90;;;9.70;99.90;;;;;;5073747;28;20761;-76
2022/12/29 07:16:30;;;;;;;12.05;2.63;;;;;;;;;;5092409;28;20491;-76
2022/12/29 07:18:59;;;;;;;13.35;2.80;;;;;;;;;;5091634;28;20425;-76
2022/12/29 07:21:25;;;;;;;10.85;2.70;;;;;;;;;;5093016;28;20418;-75
2022/12/29 07:23:51;;;;;;;13.00;2.80;;;;;;;;;;5074720;28;20414;-77
2022/12/29 07:26:18;;;;;;;13.43;2.90;;;;;;;;;;5074213;28;20422;-77
2022/12/29 07:28:44;;;;;;;10.05;2.72;;;;;;;;;;5066286;28;20444;-76
2022/12/29 07:31:14;;;;;;;14.67;3.10;;;;;;;;;;5086445;28;20456;-77
2022/12/29 07:33:40;;;;;;;12.20;2.65;;;;;;;;;;5071395;28;20775;-77
2022/12/29 07:36:07;;;;;;;13.45;2.85;;;;;;;;;;5073050;28;20419;-77
2022/12/29 07:38:33;;;;;;;13.38;2.75;;;;;;;;;;5092295;28;20968;-77
2022/12/29 07:40:59;;;;;;;12.57;2.47;;;;;;;;;;5092650;28;20920;-77
2022/12/29 07:43:25;;;;;;;11.93;2.70;;;;;;;;;;5087674;28;20978;-78
2022/12/29 07:45:51;;;;;;;11.13;2.92;;;;;;;;;;5072910;28;20403;-78
2022/12/29 07:48:17;;;;;;;14.18;2.70;;;;;;;;;;5075245;28;20912;-78
2022/12/29 07:50:43;;;;;;;9.70;2.70;;;;;;;;;;5064749;28;20431;-76
2022/12/29 07:53:09;;;;;;;14.80;3.15;;;;;;;;;;5087965;28;20947;-75
2022/12/29 07:55:35;;;;;;;14.18;2.63;;;;;;;;;;5089642;28;20420;-78
2022/12/29 07:58:01;;;;;;;15.03;3.13;;;;;;;;;;5089455;28;20462;-78
2022/12/29 08:00:28;;;;;;;15.18;3.22;;;;;;;;;;5091648;28;20460;-78
2022/12/29 08:02:54;;;;;;;11.55;2.50;;;;;;;;;;5088276;28;20760;-79
2022/12/29 08:05:20;;;;;;;12.37;2.70;;;;;;;;;;5084920;28;20948;-79
2022/12/29 08:07:46;;;;;;;15.60;3.03;;;;;;;;;;5066367;28;20422;-78
2022/12/29 08:10:13;;;;;;;14.80;3.10;;;9.80;99.90;;;;;;5084470;28;20821;-78
2022/12/29 08:12:40;;;;;;;11.82;2.83;;;;;;;;;;5070729;28;20453;-79
2022/12/29 08:15:07;;;;;;;14.20;2.83;;;;;;;;;;5072297;28;20515;-78
2022/12/29 08:17:33;;;;;;;10.53;2.60;;;;;;;;;;5076391;28;20423;-79
2022/12/29 08:19:59;;;;;;;12.65;2.70;;;;;;;;;;5061079;28;20445;-78
2022/12/29 08:22:25;;;;;;;14.05;2.88;;;;;;;;;;5090370;28;20422;-79
2022/12/29 08:24:51;;;;;;;16.20;3.07;;;;;;;;;;5091792;28;20932;-78
2022/12/29 08:27:17;;;;;;;13.57;2.92;;;;;;;;;;5066131;28;20464;-78
2022/12/29 08:29:43;;;;;;;13.40;3.10;;;;;;;;;;5072733;28;20406;-78
2022/12/29 08:32:10;;;;;;;17.38;3.15;;;;;;;;;;5074844;28;20489;-80
2022/12/29 08:34:36;;;;;;;17.15;3.20;;;;;;;;;;5089648;28;20410;-78
2022/12/29 08:37:02;;;;;;;17.40;3.50;;;;;;;;;;5089708;28;20442;-79
2022/12/29 08:39:28;;;;;;;13.02;3.00;;;;;;;;;;5086505;28;20429;-79
2022/12/29 08:41:54;;;;;;;18.40;3.70;;;;;;;;;;5089964;28;20906;-78
2022/12/29 08:44:20;;;;;;;24.73;9.80;;;;;;;;;;5090192;28;20435;-78
2022/12/29 08:46:47;;;;;;;22.52;4.10;;;;;;;;;;5092230;28;20428;-78
2022/12/29 08:49:13;;;;;;;17.42;3.40;;;;;;;;;;5091790;28;20448;-78
2022/12/29 08:51:39;;;;;;;18.52;3.60;;;;;;;;;;5067854;28;20432;-79
2022/12/29 08:54:05;;;;;;;19.48;3.70;;;;;;;;;;5056399;28;20453;-78
2022/12/29 08:56:31;;;;;;;19.80;3.85;;;;;;;;;;5056824;28;20421;-78
2022/12/29 08:58:57;;;;;;;19.60;4.22;;;;;;;;;;5082801;28;20436;-78
2022/12/29 09:01:23;;;;;;;15.30;3.00;;;;;;;;;;5071950;28;20412;-78
2022/12/29 09:03:50;;;;;;;18.55;4.55;;;;;;;;;;5052159;28;20442;-78
2022/12/29 09:06:17;;;;;;;19.43;3.93;;;;;;;;;;5078500;28;20421;-79
2022/12/29 09:08:43;;;;;;;22.50;4.47;;;;;;;;;;5087677;28;20437;-78
2022/12/29 09:11:12;;;;;;;19.25;3.75;;;9.80;99.90;;;;;;5091053;28;20770;-79
2022/12/29 09:13:38;;;;;;;16.65;3.70;;;;;;;;;;5085015;28;20481;-78
2022/12/29 09:16:05;;;;;;;21.10;4.00;;;;;;;;;;5110381;28;20489;-78
2022/12/29 09:18:31;;;;;;;17.33;3.80;;;;;;;;;;5060578;28;20499;-78
2022/12/29 09:20:58;;;;;;;18.08;4.00;;;;;;;;;;5071780;28;20759;-78
2022/12/29 09:23:24;;;;;;;19.98;3.83;;;;;;;;;;5070767;28;20414;-78
2022/12/29 09:25:50;;;;;;;18.10;3.95;;;;;;;;;;5077748;28;20398;-78
2022/12/29 09:28:16;;;;;;;20.48;3.80;;;;;;;;;;5086731;28;20440;-77
2022/12/29 09:30:42;;;;;;;13.85;3.00;;;;;;;;;;5090415;28;20425;-77
2022/12/29 09:33:08;;;;;;;16.17;3.50;;;;;;;;;;5077554;28;20424;-78
2022/12/29 09:35:35;;;;;;;15.45;3.25;;;;;;;;;;5090958;28;20421;-77
2022/12/29 09:38:01;;;;;;;14.60;2.90;;;;;;;;;;5089591;28;20424;-77
2022/12/29 09:40:29;;;;;;;15.38;3.10;;;;;;;;;;5057750;28;20399;-77
2022/12/29 09:43:24;;;;;;;14.25;3.17;;;9.90;99.90;;;;;;5081980;28;20415;-77
2022/12/29 09:45:59;;;;;;;16.10;3.33;;;;;;;;;;5092686;28;20451;-77
2022/12/29 09:48:32;;;;;;;17.88;3.45;;;;;;;;;;5094162;28;20413;-78
2022/12/29 09:51:00;;;;;;;13.15;2.88;;;;;;;;;;5086056;28;20431;-78
2022/12/29 09:53:30;;;;;;;12.18;3.03;;;;;;;;;;5087228;28;20435;-78
2022/12/29 09:55:57;;;;;;;16.17;3.10;;;;;;;;;;5083736;28;20424;-78
2022/12/29 09:58:38;;;;;;;16.63;3.55;;;;;;;;;;5089196;28;20422;-78
2022/12/29 10:01:20;;;;;;;14.88;2.97;;;9.00;99.90;;;;;;5091405;28;20421;-78
2022/12/29 10:03:49;;;;;;;13.38;3.05;;;;;;;;;;5094900;28;20485;-77
2022/12/29 10:06:31;;;;;;;14.15;3.08;;;9.40;99.90;;;;;;5075147;28;20414;-78
2022/12/29 10:09:09;;;;;;;13.48;2.97;;;;;;;;;;5074905;28;20412;-78
2022/12/29 10:11:45;;;;;;;12.45;2.63;;;;;;;;;;5074360;28;20400;-78
2022/12/29 10:14:23;;;;;;;15.98;3.13;;;;;;;;;;5084841;28;20493;-79
2022/12/29 10:16:55;;;;;;;16.70;3.70;;;;;;;;;;5075249;28;20434;-80
2022/12/29 10:19:21;;;;;;;15.90;3.25;;;;;;;;;;5057594;28;20427;-81
2022/12/29 10:21:47;;;;;;;16.90;3.75;;;;;;;;;;5066671;28;20434;-81
2022/12/29 10:24:13;;;;;;;14.80;3.20;;;;;;;;;;5092075;28;20480;-80
2022/12/29 10:26:42;;;;;;;17.00;3.63;;;8.90;99.90;;;;;;5073965;28;20470;-80
2022/12/29 10:29:14;;;;;;;13.48;2.95;;;;;;;;;;5094192;28;20495;-80
2022/12/29 10:31:43;;;;;;;15.32;3.33;;;;;;;;;;5082371;28;20422;-80
2022/12/29 10:34:15;;;;;;;14.27;3.00;;;;;;;;;;5076846;28;20467;-80
2022/12/29 10:36:48;;;;;;;19.27;4.47;;;;;;;;;;5094534;28;20917;-80
2022/12/29 10:39:26;;;;;;;20.15;3.78;;;;;;;;;;5091275;28;20517;-81
2022/12/29 10:42:01;;;;;;;15.17;3.57;;;;;;;;;;5080087;28;20411;-81
2022/12/29 10:44:30;;;;;;;18.15;3.53;;;;;;;;;;5089825;28;20414;-80
2022/12/29 10:46:59;;;;;;;15.97;3.80;;;;;;;;;;5072982;28;20513;-79
2022/12/29 10:49:27;;;;;;;14.57;3.40;;;;;;;;;;5093086;28;20476;-79
2022/12/29 10:51:55;;;;;;;14.52;3.22;;;;;;;;;;5075839;28;20778;-78
2022/12/29 10:54:28;;;;;;;17.77;3.58;;;;;;;;;;5081450;28;20426;-78
2022/12/29 10:57:08;;;;;;;17.27;3.67;;;9.60;99.90;;;;;;5096992;28;20434;-78
2022/12/29 10:59:36;;;;;;;19.98;4.18;;;;;;;;;;5093579;28;20440;-78
2022/12/29 11:02:05;;;;;;;18.55;4.30;;;;;;;;;;5093106;28;20414;-78
2022/12/29 11:04:49;;;;;;;23.67;4.70;;;;;;;;;;5086887;28;20426;-78
2022/12/29 11:07:17;;;;;;;18.33;4.00;;;;;;;;;;5090813;28;20426;-78
2022/12/29 11:09:43;;;;;;;21.20;4.10;;;;;;;;;;5090758;28;20429;-77
2022/12/29 11:12:19;;;;;;;18.58;4.60;;;;;;;;;;5090409;28;20802;-78
2022/12/29 11:14:45;;;;;;;19.30;4.28;;;;;;;;;;5090238;28;20528;-77
2022/12/29 11:17:15;;;;;;;21.63;4.50;;;;;;;;;;5077694;28;20415;-77
2022/12/29 11:19:41;;;;;;;18.95;4.20;;;;;;;;;;5084009;28;20438;-77
2022/12/29 11:22:14;;;;;;;24.15;4.80;;;;;;;;;;5072126;28;20425;-77
2022/12/29 11:24:47;;;;;;;23.33;4.57;;;;;;;;;;5077561;28;20416;-77
2022/12/29 11:27:22;;;;;;;20.17;4.93;;;;;;;;;;5080623;28;20435;-77
2022/12/29 11:29:49;;;;;;;25.75;4.70;;;;;;;;;;5074164;28;20497;-78
2022/12/29 11:32:42;;;;;;;27.80;5.63;;;;;;;;;;5077034;28;20402;-77
2022/12/29 11:35:32;;;;;;;21.85;4.72;;;10.20;99.90;;;;;;5073402;28;20418;-77
2022/12/29 11:37:59;;;;;;;21.27;5.00;;;10.10;99.90;;;;;;5087121;28;20428;-77
2022/12/29 11:40:26;;;;;;;23.40;4.70;;;;;;;;;;5081978;28;20440;-78
2022/12/29 11:42:53;;;;;;;21.55;4.65;;;;;;;;;;5085796;28;20963;-77
2022/12/29 11:45:21;;;;;;;24.35;5.50;;;9.70;99.90;;;;;;5086705;28;20409;-77
2022/12/29 11:47:49;;;;;;;23.63;5.07;;;;;;;;;;5069109;28;20418;-77
2022/12/29 11:50:29;;;;;;;25.58;4.93;;;9.80;99.90;;;;;;5076497;28;20432;-77
2022/12/29 11:53:00;;;;;;;20.88;4.40;;;;;;;;;;5109526;28;20427;-77
2022/12/29 11:55:26;;;;;;;25.02;4.78;;;;;;;;;;5092835;28;20418;-77
2022/12/29 11:57:53;;;;;;;23.35;4.68;;;;;;;;;;5088030;28;20978;-77
2022/12/29 12:00:21;;;;;;;25.70;4.38;;;;;;;;;;5090084;28;20420;-76
2022/12/29 12:03:13;;;;;;;21.90;4.82;;;9.90;99.90;;;;;;5090227;28;20770;-77
2022/12/29 12:05:53;;;;;;;21.50;4.90;;;10.10;99.90;;;;;;5082866;28;20398;-77
2022/12/29 12:08:29;;;;;;;26.38;5.57;;;9.70;99.90;;;;;;5089085;28;20418;-76
2022/12/29 12:11:10;;;;;;;26.33;5.03;;;;;;;;;;5055068;28;20419;-77
2022/12/29 12:13:39;;;;;;;29.27;5.65;;;;;;;;;;5074851;28;20427;-77
2022/12/29 12:16:12;;;;;;;23.10;4.63;;;9.80;99.90;;;;;;5087766;28;20530;-77
2022/12/29 12:18:48;;;;;;;21.02;4.40;;;;;;;;;;5074827;28;20701;-76
2022/12/29 12:21:38;;;;;;;26.05;5.10;;;9.90;99.90;;;;;;5084675;28;20425;-77
2022/12/29 12:24:15;;;;;;;19.40;4.30;;;;;;;;;;5086506;28;20440;-77
2022/12/29 12:26:47;;;;;;;18.60;3.63;;;;;;;;;;5088053;28;20413;-76
2022/12/29 12:29:32;;;;;;;18.42;3.67;;;;;;;;;;5091938;28;20442;-77
2022/12/29 12:31:59;;;;;;;15.80;3.72;;;;;;;;;;5081953;28;20448;-77
2022/12/29 12:34:29;;;;;;;12.40;3.67;;;;;;;;;;5090619;28;20455;-77
2022/12/29 12:37:04;;;;;;;15.45;3.10;;;;;;;;;;5075218;28;20748;-76
2022/12/29 12:39:36;;;;;;;14.68;3.35;;;;;;;;;;5076372;28;20429;-77
2022/12/29 12:42:21;;;;;;;16.95;3.88;;;;;;;;;;5096214;28;20418;-77
2022/12/29 12:44:50;;;;;;;16.17;3.72;;;;;;;;;;5071270;28;20485;-77
2022/12/29 12:47:21;;;;;;;19.27;4.05;;;;;;;;;;5082171;28;20425;-76
2022/12/29 12:49:47;;;;;;;16.63;3.58;;;;;;;;;;5071574;28;20426;-77
2022/12/29 12:52:51;;;;;;;15.15;3.53;;;11.30;99.90;;;;;;5084791;28;20429;-76
2022/12/29 12:55:23;;;;;;;14.10;3.33;;;;;;;;;;5079112;28;20519;-76
2022/12/29 12:57:49;;;;;;;11.70;3.10;;;;;;;;;;5085854;28;20917;-76
2022/12/29 13:00:17;;;;;;;15.98;3.15;;;;;;;;;;5086521;28;20511;-78
2022/12/29 13:02:47;;;;;;;15.43;3.20;;;;;;;;;;5090256;28;20418;-78
2022/12/29 13:05:46;;;;;;;17.08;2.95;;;10.10;99.90;;;;;;5068201;28;20407;-76
2022/12/29 13:08:25;;;;;;;13.18;3.33;;;;;;;;;;5067153;28;20520;-76
2022/12/29 13:10:54;;;;;;;14.85;2.83;;;;;;;;;;5068692;28;20860;-77
2022/12/29 13:13:26;;;;;;;17.02;3.10;;;;;;;;;;5080586;28;20417;-77
2022/12/29 13:16:11;;;;;;;12.17;2.90;;;;;;;;;;5086550;28;20422;-77
2022/12/29 13:18:53;;;;;;;13.75;2.80;;;;;;;;;;5080587;28;20430;-77
2022/12/29 13:21:31;;;;;;;11.85;2.30;;;;;;;;;;5064364;28;20414;-77
2022/12/29 13:24:12;;;;;;;15.60;2.85;;;10.10;99.90;;;;;;5079794;28;20415;-77
2022/12/29 13:26:38;;;;;;;11.00;2.33;;;;;;;;;;5089637;28;20416;-77
2022/12/29 13:29:18;;;;;;;11.77;2.33;;;;;;;;;;5086692;28;20503;-76
2022/12/29 13:32:03;;;;;;;14.30;2.17;;;;;;;;;;5070736;28;20753;-76
2022/12/29 13:34:44;;;;;;;13.77;2.92;;;;;;;;;;5080438;28;20879;-77
2022/12/29 13:37:12;;;;;;;15.18;2.97;;;;;;;;;;5078607;28;20411;-76
2022/12/29 13:39:42;;;;;;;13.80;2.53;;;9.80;99.90;;;;;;5084010;28;20416;-77
2022/12/29 13:42:10;;;;;;;13.63;2.72;;;;;;;;;;5070969;28;20483;-77
2022/12/29 13:44:39;;;;;;;16.77;3.05;;;;;;;;;;5093121;28;20402;-78
2022/12/29 13:47:29;;;;;;;12.38;2.45;;;9.80;99.90;;;;;;5092369;28;20875;-77
2022/12/29 13:49:58;;;;;;;11.32;2.70;;;9.80;99.90;;;;;;5086815;28;20504;-76
2022/12/29 13:52:27;;;;;;;16.63;2.87;;;;;;;;;;5090003;28;20413;-77
2022/12/29 13:55:06;;;;;;;12.32;2.28;;;9.70;99.90;;;;;;5064294;28;20419;-77
2022/12/29 13:57:53;;;;;;;12.32;2.65;;;9.50;99.90;;;;;;5072134;28;20425;-77
2022/12/29 14:00:23;;;;;;;10.82;2.30;;;;;;;;;;5086923;28;20414;-77
2022/12/29 14:03:10;;;;;;;11.45;2.60;;;;;;;;;;5089739;28;20420;-77
2022/12/29 14:05:36;;;;;;;11.55;2.75;;;;;;;;;;5084290;28;20493;-77
2022/12/29 14:08:03;;;;;;;11.85;2.60;;;;;;;;;;5074038;28;20430;-78
2022/12/29 14:10:37;;;;;;;13.20;2.67;;;9.80;99.90;;;;;;5088372;28;20433;-78
2022/12/29 14:13:29;;;;;;;14.27;3.00;;;;;;;;;;5081935;28;20454;-77
2022/12/29 14:15:57;;;;;;;12.57;2.92;;;;;;;;;;5084553;28;20422;-78
2022/12/29 14:18:32;;;;;;;13.73;3.10;;;;;;;;;;5072634;28;20453;-78
2022/12/29 14:21:10;;;;;;;17.30;2.70;;;;;;;;;;5073787;28;20459;-78
2022/12/29 14:23:42;;;;;;;17.70;3.70;;;;;;;;;;5092077;28;20418;-76
2022/12/29 14:26:27;;;;;;;22.20;3.40;;;;;;;;;;5088692;28;20910;-77
2022/12/29 14:28:53;;;;;;;12.15;2.90;;;;;;;;;;5091501;28;20816;-76
2022/12/29 14:31:19;;;;;;;15.13;3.28;;;;;;;;;;5085049;28;20432;-76
2022/12/29 14:34:04;;;;;;;15.23;2.90;;;;;;;;;;5104774;28;20451;-76
2022/12/29 14:36:39;;;;;;;17.98;3.63;;;;;;;;;;5075237;28;20418;-74
2022/12/29 14:39:38;;;;;;;17.50;3.22;;;9.30;99.90;;;;;;5059335;28;20633;-74
2022/12/29 14:42:13;;;;;;;17.23;3.33;;;9.20;99.90;;;;;;5068575;28;20531;-75
2022/12/29 14:44:53;;;;;;;14.87;3.03;;;;;;;;;;5085831;28;20509;-76
2022/12/29 14:47:46;;;;;;;18.60;3.65;;;;;;;;;;5091008;28;20781;-75
2022/12/29 14:50:15;;;;;;;12.63;2.83;;;;;;;;;;5089188;28;20418;-75
2022/12/29 14:52:44;;;;;;;17.63;3.30;;;;;;;;;;5079425;28;20420;-76
2022/12/29 14:55:16;;;;;;;14.43;3.08;;;;;;;;;;5073657;28;20414;-75
2022/12/29 14:57:48;;;;;;;16.77;2.83;;;;;;;;;;5085261;28;21036;-75
2022/12/29 15:00:14;;;;;;;16.10;3.30;;;;;;;;;;5087373;28;20932;-75
2022/12/29 15:02:41;;;;;;;13.77;3.03;;;;;;;;;;5072092;28;20415;-75
2022/12/29 15:05:23;;;;;;;14.57;3.10;;;;;;;;;;5086644;28;20414;-75
2022/12/29 15:07:50;;;;;;;14.93;3.38;;;;;;;;;;5081902;28;20414;-75
2022/12/29 15:10:19;;;;;;;12.15;2.70;;;;;;;;;;5083022;28;20422;-75
2022/12/29 15:12:53;;;;;;;14.82;3.08;;;8.90;99.90;;;;;;5067169;28;20426;-75